createdAt,value
2023-07-03T00:01:20.243Z,97787.66
2023-07-03T00:03:52.857Z,97781.72
2023-07-03T00:06:21.719Z,97794.34
2023-07-03T00:08:49.735Z,97795.09
2023-07-03T00:11:19.342Z,97795.03
2023-07-03T00:13:51.386Z,97791.81
2023-07-03T00:16:19.406Z,97793.00
2023-07-03T00:18:49.822Z,97793.47
2023-07-03T00:21:19.428Z,97791.09
2023-07-03T00:23:47.961Z,97785.59
2023-07-03T00:26:17.421Z,97789.94
2023-07-03T00:28:45.413Z,97792.59
2023-07-03T00:31:15.956Z,97787.19
2023-07-03T00:33:43.957Z,97784.00
2023-07-03T00:36:12.937Z,97783.22
2023-07-03T00:38:40.745Z,97782.91
2023-07-03T00:41:08.841Z,97786.47
2023-07-03T00:43:41.913Z,97782.16
2023-07-03T00:46:10.707Z,97788.13
2023-07-03T00:48:43.338Z,97779.38
2023-07-03T00:51:15.799Z,97778.19
2023-07-03T00:53:43.745Z,97781.75
2023-07-03T00:56:13.154Z,97784.84
2023-07-03T00:58:41.572Z,97780.97
2023-07-03T01:01:18.421Z,97782.63
2023-07-03T01:03:51.732Z,97782.53
2023-07-03T01:06:29.369Z,97771.97
2023-07-03T01:09:00.395Z,97782.16
2023-07-03T01:11:29.609Z,97775.13
2023-07-03T01:14:03.618Z,97776.31
2023-07-03T01:16:35.107Z,97786.63
2023-07-03T01:19:06.284Z,97791.34
2023-07-03T01:21:43.798Z,97789.00
2023-07-03T01:24:29.668Z,97783.88
2023-07-03T01:26:58.060Z,97790.50
2023-07-03T01:29:29.117Z,97796.69
2023-07-03T01:31:58.352Z,97793.16
2023-07-03T01:34:29.162Z,97792.00
2023-07-03T01:36:59.259Z,97788.44
2023-07-03T01:39:29.259Z,97797.59
2023-07-03T01:41:58.781Z,97796.41
2023-07-03T01:44:27.090Z,97791.31
2023-07-03T01:46:54.969Z,97794.47
2023-07-03T01:49:22.733Z,97791.69
2023-07-03T01:51:58.917Z,97790.50
2023-07-03T01:54:33.503Z,97790.59
2023-07-03T01:57:04.221Z,97786.72
2023-07-03T01:59:38.864Z,97779.63
2023-07-03T02:02:12.445Z,97783.56
2023-07-03T02:04:58.726Z,97784.38
2023-07-03T02:07:29.492Z,97774.91
2023-07-03T02:10:01.473Z,97780.84
2023-07-03T02:12:30.466Z,97775.34
2023-07-03T02:15:03.364Z,97774.88
2023-07-03T02:17:32.385Z,97775.72
2023-07-03T02:20:01.589Z,97782.06
2023-07-03T02:22:29.392Z,97779.69
2023-07-03T02:24:58.601Z,97785.19
2023-07-03T02:27:27.560Z,97778.09
2023-07-03T02:29:55.257Z,97781.25
2023-07-03T02:32:23.294Z,97789.13
2023-07-03T02:34:51.055Z,97782.88
2023-07-03T02:37:20.289Z,97787.19
2023-07-03T02:39:49.707Z,97782.09
2023-07-03T02:42:22.170Z,97789.97
2023-07-03T02:44:51.206Z,97790.75
2023-07-03T02:47:22.150Z,97789.97
2023-07-03T02:49:50.444Z,97789.16
2023-07-03T02:52:21.741Z,97792.31
2023-07-03T02:54:49.725Z,97789.13
2023-07-03T02:57:20.555Z,97787.16
2023-07-03T02:59:48.502Z,97785.91
2023-07-03T03:02:22.382Z,97785.19
2023-07-03T03:04:51.568Z,97790.69
2023-07-03T03:07:19.515Z,97798.50
2023-07-03T03:09:47.893Z,97785.47
2023-07-03T03:12:15.837Z,97786.63
2023-07-03T03:14:45.020Z,97786.28
2023-07-03T03:17:13.133Z,97788.28
2023-07-03T03:19:42.604Z,97786.31
2023-07-03T03:22:10.668Z,97780.41
2023-07-03T03:24:39.557Z,97780.41
2023-07-03T03:27:09.918Z,97779.53
2023-07-03T03:29:40.855Z,97786.31
2023-07-03T03:32:11.030Z,97778.03
2023-07-03T03:34:39.132Z,97789.81
2023-07-03T03:37:11.023Z,97781.91
2023-07-03T03:39:38.777Z,97790.56
2023-07-03T03:42:10.767Z,97784.28
2023-07-03T03:44:40.037Z,97781.56
2023-07-03T03:47:11.682Z,97786.25
2023-07-03T03:49:41.420Z,97779.44
2023-07-03T03:52:09.478Z,97785.75
2023-07-03T03:54:41.132Z,97786.16
2023-07-03T03:57:09.199Z,97784.19
2023-07-03T03:59:37.348Z,97785.84
2023-07-03T04:02:08.987Z,97775.13
2023-07-03T04:04:40.862Z,97783.03
2023-07-03T04:07:09.378Z,97778.22
2023-07-03T04:09:41.077Z,97788.94
2023-07-03T04:12:14.346Z,97785.75
2023-07-03T04:14:44.445Z,97781.84
2023-07-03T04:17:12.523Z,97782.63
2023-07-03T04:19:44.549Z,97784.22
2023-07-03T04:22:13.870Z,97787.34
2023-07-03T04:24:42.687Z,97781.81
2023-07-03T04:27:12.787Z,97781.03
2023-07-03T04:29:42.407Z,97778.22
2023-07-03T04:32:19.629Z,97781.75
2023-07-03T04:34:56.539Z,97780.28
2023-07-03T04:37:33.856Z,97791.22
2023-07-03T04:40:12.791Z,97796.25
2023-07-03T04:42:41.136Z,97791.19
2023-07-03T04:45:18.214Z,97787.22
2023-07-03T04:47:46.418Z,97788.69
2023-07-03T04:50:23.844Z,97791.13
2023-07-03T04:52:58.997Z,97787.09
2023-07-03T04:55:29.880Z,97794.13
2023-07-03T04:58:05.198Z,97787.72
2023-07-03T05:00:33.690Z,97786.91
2023-07-03T05:03:05.200Z,97791.78
2023-07-03T05:05:39.538Z,97799.59
2023-07-03T05:08:10.397Z,97790.97
2023-07-03T05:10:41.506Z,97796.28
2023-07-03T05:13:30.009Z,97794.97
2023-07-03T05:16:00.014Z,97796.44
2023-07-03T05:18:42.096Z,97796.38
2023-07-03T05:21:27.946Z,97801.00
2023-07-03T05:24:04.750Z,97796.63
2023-07-03T05:26:42.053Z,97800.88
2023-07-03T05:29:10.513Z,97802.56
2023-07-03T05:31:46.090Z,97804.19
2023-07-03T05:34:25.861Z,97804.44
2023-07-03T05:36:57.919Z,97802.03
2023-07-03T05:39:32.583Z,97804.91
2023-07-03T05:42:11.676Z,97805.16
2023-07-03T05:44:43.053Z,97810.34
2023-07-03T05:47:21.880Z,97816.56
2023-07-03T05:49:57.330Z,97802.19
2023-07-03T05:52:33.458Z,97801.38
2023-07-03T05:55:03.320Z,97811.59
2023-07-03T05:57:45.774Z,97803.84
2023-07-03T06:00:16.750Z,97806.09
2023-07-03T06:02:47.797Z,97811.63
2023-07-03T06:05:20.518Z,97810.72
2023-07-03T06:07:49.865Z,97813.97
2023-07-03T06:10:18.307Z,97812.97
2023-07-03T06:12:56.481Z,97811.72
2023-07-03T06:15:40.083Z,97819.97
2023-07-03T06:18:16.317Z,97815.16
2023-07-03T06:21:03.404Z,97818.25
2023-07-03T06:23:41.895Z,97819.88
2023-07-03T06:26:12.933Z,97822.59
2023-07-03T06:28:41.750Z,97826.03
2023-07-03T06:31:13.101Z,97824.78
2023-07-03T06:33:41.192Z,97830.44
2023-07-03T06:36:11.721Z,97827.00
2023-07-03T06:38:41.692Z,97819.22
2023-07-03T06:41:09.657Z,97839.16
2023-07-03T06:43:37.828Z,97825.44
2023-07-03T06:46:06.084Z,97826.97
2023-07-03T06:48:36.384Z,97827.09
2023-07-03T06:51:08.715Z,97830.03
2023-07-03T06:53:37.818Z,97839.31
2023-07-03T06:56:08.191Z,97841.47
2023-07-03T06:58:36.808Z,97842.84
2023-07-03T07:01:09.003Z,97838.50
2023-07-03T07:03:37.221Z,97842.00
2023-07-03T07:06:11.042Z,97839.63
2023-07-03T07:08:39.377Z,97838.25
2023-07-03T07:11:11.761Z,97845.78
2023-07-03T07:13:41.591Z,97842.03
2023-07-03T07:16:13.645Z,97848.38
2023-07-03T07:18:41.972Z,97837.34
2023-07-03T07:21:10.545Z,97841.56
2023-07-03T07:23:38.479Z,97840.00
2023-07-03T07:26:06.230Z,97832.09
2023-07-03T07:28:35.686Z,97842.16
2023-07-03T07:31:10.609Z,97845.66
2023-07-03T07:33:38.287Z,97833.22
2023-07-03T07:36:07.764Z,97837.47
2023-07-03T07:38:35.568Z,97839.03
2023-07-03T07:41:04.290Z,97840.19
2023-07-03T07:43:37.070Z,97831.06
2023-07-03T07:46:06.397Z,97830.31
2023-07-03T07:48:35.119Z,97835.44
2023-07-03T07:51:03.494Z,97824.38
2023-07-03T07:53:31.864Z,97826.63
2023-07-03T07:56:00.232Z,97833.22
2023-07-03T07:58:28.407Z,97818.53
2023-07-03T08:00:58.952Z,97822.53
2023-07-03T08:03:29.321Z,97822.59
2023-07-03T08:06:01.301Z,97825.94
2023-07-03T08:08:29.431Z,97820.38
2023-07-03T08:10:58.728Z,97828.44
2023-07-03T08:13:27.093Z,97823.50
2023-07-03T08:15:55.547Z,97826.78
2023-07-03T08:18:24.987Z,97820.38
2023-07-03T08:20:54.836Z,97824.28
2023-07-03T08:23:23.242Z,97811.31
2023-07-03T08:25:52.771Z,97822.09
2023-07-03T08:28:20.933Z,97819.31
2023-07-03T08:30:49.049Z,97820.19
2023-07-03T08:33:17.305Z,97827.31
2023-07-03T08:38:17.344Z,97835.00
2023-07-03T08:40:45.878Z,97838.56
2023-07-03T08:43:19.090Z,97835.50
2023-07-03T08:45:50.865Z,97828.03
2023-07-03T08:48:26.654Z,97823.25
2023-07-03T08:50:58.322Z,97829.44
2023-07-03T08:53:34.458Z,97840.44
2023-07-03T08:56:10.372Z,97839.66
2023-07-03T08:58:38.427Z,97831.81
2023-07-03T09:01:14.733Z,97833.00
2023-07-03T09:04:00.003Z,97834.28
2023-07-03T09:06:37.099Z,97840.69
2023-07-03T09:09:17.153Z,97847.50
2023-07-03T09:11:52.815Z,97842.81
2023-07-03T09:14:28.246Z,97842.28
2023-07-03T09:16:58.011Z,97836.31
2023-07-03T09:19:30.764Z,97831.63
2023-07-03T09:22:01.978Z,97834.28
2023-07-03T09:24:39.189Z,97834.94
2023-07-03T09:27:13.261Z,97834.66
2023-07-03T09:29:42.394Z,97843.88
2023-07-03T09:32:14.486Z,97841.91
2023-07-03T09:35:13.323Z,97841.56
2023-07-03T09:37:42.986Z,97846.16
2023-07-03T09:40:21.366Z,97847.66
2023-07-03T09:42:50.204Z,97850.88
2023-07-03T09:45:24.241Z,97840.88
2023-07-03T09:47:54.526Z,97856.69
2023-07-03T09:50:28.326Z,97844.63
2023-07-03T09:53:07.528Z,97870.00
2023-07-03T09:55:39.213Z,97858.88
2023-07-03T09:58:15.325Z,97875.09
2023-07-03T10:00:49.388Z,97863.28
2023-07-03T10:08:31.227Z,97870.78
2023-07-03T10:13:41.838Z,97870.19
2023-07-03T10:16:11.610Z,97863.47
2023-07-03T10:18:42.183Z,97865.78
2023-07-03T10:21:14.895Z,97874.03
2023-07-03T10:23:44.010Z,97874.09
2023-07-03T10:26:20.028Z,97867.78
2023-07-03T10:28:51.201Z,97875.41
2023-07-03T10:31:23.680Z,97875.88
2023-07-03T10:33:59.351Z,97873.41
2023-07-03T10:36:29.655Z,97867.78
2023-07-03T10:39:06.556Z,97877.09
2023-07-03T10:41:39.525Z,97877.97
2023-07-03T10:44:12.296Z,97872.47
2023-07-03T10:46:45.026Z,97885.38
2023-07-03T10:49:20.054Z,97887.81
2023-07-03T10:51:55.701Z,97879.88
2023-07-03T10:54:30.080Z,97874.69
2023-07-03T10:57:03.557Z,97877.91
2023-07-03T10:59:34.702Z,97875.72
2023-07-03T11:02:18.387Z,97886.47
2023-07-03T11:04:54.773Z,97886.94
2023-07-03T11:07:33.967Z,97900.88
2023-07-03T11:10:08.118Z,97881.78
2023-07-03T11:12:45.147Z,97876.91
2023-07-03T11:15:24.404Z,97872.03
2023-07-03T11:23:18.745Z,97854.69
2023-07-03T11:28:34.309Z,97861.44
2023-07-03T11:31:04.138Z,97858.47
2023-07-03T11:36:06.967Z,97862.78
2023-07-03T11:43:49.460Z,97863.25
2023-07-03T11:46:23.415Z,97870.97
2023-07-03T11:48:57.220Z,97857.56
2023-07-03T11:51:34.180Z,97858.88
2023-07-03T11:54:14.232Z,97870.59
2023-07-03T11:56:51.489Z,97874.81
2023-07-03T11:59:43.227Z,97863.59
2023-07-03T12:02:44.620Z,97863.88
2023-07-03T12:05:13.330Z,97865.59
2023-07-03T12:07:49.555Z,97861.56
2023-07-03T12:10:40.961Z,97854.84
2023-07-03T12:13:31.450Z,97868.03
2023-07-03T12:16:04.022Z,97852.66
2023-07-03T12:18:31.973Z,97858.22
2023-07-03T12:21:00.836Z,97856.06
2023-07-03T12:23:36.709Z,97862.25
2023-07-03T12:26:06.158Z,97866.50
2023-07-03T12:28:34.043Z,97853.66
2023-07-03T12:31:19.998Z,97852.31
2023-07-03T12:33:59.061Z,97847.00
2023-07-03T12:36:32.209Z,97855.25
2023-07-03T12:39:10.303Z,97840.75
2023-07-03T12:41:38.613Z,97844.84
2023-07-03T12:44:10.035Z,97855.31
2023-07-03T12:46:40.670Z,97838.00
2023-07-03T12:49:11.695Z,97866.47
2023-07-03T12:51:42.907Z,97844.94
2023-07-03T12:54:12.761Z,97845.59
2023-07-03T12:56:42.246Z,97846.16
2023-07-03T12:59:13.385Z,97848.47
2023-07-03T13:01:42.816Z,97837.69
2023-07-03T13:04:11.473Z,97837.00
2023-07-03T13:06:40.637Z,97831.50
2023-07-03T13:09:14.431Z,97835.38
2023-07-03T13:11:46.255Z,97838.72
2023-07-03T13:14:17.334Z,97840.06
2023-07-03T13:16:49.143Z,97837.91
2023-07-03T13:19:31.880Z,97832.78
2023-07-03T13:22:01.222Z,97843.28
2023-07-03T13:24:30.900Z,97852.44
2023-07-03T13:27:02.483Z,97844.94
2023-07-03T13:29:33.148Z,97832.53
2023-07-03T13:32:16.733Z,97843.50
2023-07-03T13:34:56.452Z,97836.34
2023-07-03T13:37:27.279Z,97847.28
2023-07-03T13:40:01.289Z,97836.69
2023-07-03T13:42:31.553Z,97836.56
2023-07-03T13:44:59.996Z,97833.22
2023-07-03T13:47:30.463Z,97834.56
2023-07-03T13:49:58.720Z,97830.78
2023-07-03T13:52:26.510Z,97837.69
2023-07-03T13:54:54.183Z,97838.38
2023-07-03T13:57:21.905Z,97836.25
2023-07-03T13:59:49.896Z,97825.06
2023-07-03T14:02:18.116Z,97846.75
2023-07-03T14:04:47.628Z,97834.19
2023-07-03T14:07:15.395Z,97844.00
2023-07-03T14:09:43.495Z,97842.75
2023-07-03T14:12:12.293Z,97839.44
2023-07-03T14:14:40.146Z,97842.75
2023-07-03T14:17:08.394Z,97837.28
2023-07-03T14:19:38.691Z,97830.03
2023-07-03T14:22:08.821Z,97848.38
2023-07-03T14:24:36.858Z,97850.88
2023-07-03T14:27:04.890Z,97851.63
2023-07-03T14:29:32.717Z,97849.06
2023-07-03T14:32:00.603Z,97844.22
2023-07-03T14:34:29.187Z,97841.88
2023-07-03T14:36:56.959Z,97842.66
2023-07-03T14:39:26.693Z,97835.06
2023-07-03T14:41:54.566Z,97829.31
2023-07-03T14:44:22.395Z,97843.88
2023-07-03T14:46:51.142Z,97833.97
2023-07-03T14:49:18.914Z,97845.69
2023-07-03T14:51:46.704Z,97851.97
2023-07-03T14:54:14.442Z,97849.31
2023-07-03T14:56:43.557Z,97849.31
2023-07-03T14:59:11.432Z,97836.00
2023-07-03T15:01:39.277Z,97836.50
2023-07-03T15:04:07.703Z,97834.72
2023-07-03T15:06:35.605Z,97842.00
2023-07-03T15:09:03.346Z,97853.22
2023-07-03T15:11:32.597Z,97838.94
2023-07-03T15:14:02.290Z,97834.78
2023-07-03T15:16:31.519Z,97833.16
2023-07-03T15:19:03.166Z,97827.41
2023-07-03T15:21:31.305Z,97831.31
2023-07-03T15:23:59.127Z,97834.69
2023-07-03T15:26:27.172Z,97820.59
2023-07-03T15:28:55.548Z,97823.13
2023-07-03T15:31:26.599Z,97825.09
2023-07-03T15:33:54.905Z,97819.97
2023-07-03T15:36:22.732Z,97824.63
2023-07-03T15:38:51.057Z,97817.63
2023-07-03T15:41:19.026Z,97816.66
2023-07-03T15:43:49.094Z,97824.09
2023-07-03T15:46:18.473Z,97814.72
2023-07-03T15:48:49.742Z,97821.75
2023-07-03T15:51:19.432Z,97823.97
2023-07-03T15:53:47.814Z,97826.69
2023-07-03T15:56:17.764Z,97823.59
2023-07-03T15:58:48.109Z,97821.50
2023-07-03T16:01:18.383Z,97811.50
2023-07-03T16:03:48.199Z,97822.88
2023-07-03T16:06:18.371Z,97826.72
2023-07-03T16:08:46.759Z,97829.72
2023-07-03T16:11:17.820Z,97825.38
2023-07-03T16:13:47.871Z,97831.78
2023-07-03T16:16:18.667Z,97826.53
2023-07-03T16:18:52.755Z,97835.13
2023-07-03T16:21:25.173Z,97835.41
2023-07-03T16:23:54.557Z,97832.69
2023-07-03T16:26:23.511Z,97822.75
2023-07-03T16:28:51.409Z,97833.41
2023-07-03T16:31:21.192Z,97830.63
2023-07-03T16:33:52.358Z,97837.63
2023-07-03T16:36:22.843Z,97833.06
2023-07-03T16:38:52.363Z,97830.63
2023-07-03T16:41:21.531Z,97828.38
2023-07-03T16:43:51.257Z,97819.38
2023-07-03T16:46:21.372Z,97820.16
2023-07-03T16:48:54.306Z,97821.28
2023-07-03T16:51:23.538Z,97832.63
2023-07-03T16:53:52.908Z,97831.13
2023-07-03T16:56:23.162Z,97824.53
2023-07-03T16:58:55.098Z,97833.72
2023-07-03T17:01:25.801Z,97824.97
2023-07-03T17:03:56.736Z,97829.06
2023-07-03T17:06:30.275Z,97830.78
2023-07-03T17:08:58.302Z,97832.69
2023-07-03T17:11:27.374Z,97830.44
2023-07-03T17:13:56.305Z,97822.44
2023-07-03T17:16:24.724Z,97821.75
2023-07-03T17:18:54.169Z,97822.97
2023-07-03T17:21:21.891Z,97822.44
2023-07-03T17:23:58.825Z,97826.88
2023-07-03T17:26:26.581Z,97818.09
2023-07-03T17:28:54.424Z,97825.16
2023-07-03T17:31:26.236Z,97831.50
2023-07-03T17:33:56.852Z,97830.09
2023-07-03T17:36:25.326Z,97824.34
2023-07-03T17:38:53.805Z,97832.63
2023-07-03T17:41:22.025Z,97836.53
2023-07-03T17:43:49.821Z,97824.00
2023-07-03T17:46:18.078Z,97831.06
2023-07-03T17:48:46.085Z,97830.97
2023-07-03T17:51:15.897Z,97823.22
2023-07-03T17:53:45.386Z,97829.94
2023-07-03T17:56:13.251Z,97818.88
2023-07-03T17:58:43.603Z,97820.53
2023-07-03T18:01:12.748Z,97816.03
2023-07-03T18:03:40.702Z,97807.31
2023-07-03T18:06:09.157Z,97820.03
2023-07-03T18:08:38.641Z,97823.31
2023-07-03T18:11:06.397Z,97820.03
2023-07-03T18:13:34.407Z,97824.72
2023-07-03T18:16:02.534Z,97820.88
2023-07-03T18:18:30.813Z,97816.00
2023-07-03T18:20:58.555Z,97803.13
2023-07-03T18:23:26.478Z,97811.13
2023-07-03T18:25:56.237Z,97807.91
2023-07-03T18:28:25.380Z,97807.03
2023-07-03T18:30:59.979Z,97803.22
2023-07-03T18:33:28.620Z,97799.44
2023-07-03T18:35:56.596Z,97809.00
2023-07-03T18:38:24.678Z,97811.34
2023-07-03T18:40:53.033Z,97813.84
2023-07-03T18:43:22.307Z,97802.91
2023-07-03T18:45:50.482Z,97811.00
2023-07-03T18:48:18.666Z,97816.19
2023-07-03T18:50:46.488Z,97822.53
2023-07-03T18:53:14.357Z,97826.75
2023-07-03T18:55:46.978Z,97823.16
2023-07-03T18:58:15.276Z,97828.38
2023-07-03T19:00:45.125Z,97820.63
2023-07-03T19:03:14.346Z,97832.41
2023-07-03T19:05:50.563Z,97823.56
2023-07-03T19:08:19.504Z,97821.16
2023-07-03T19:10:47.334Z,97826.00
2023-07-03T19:13:15.218Z,97823.72
2023-07-03T19:15:44.613Z,97829.97
2023-07-03T19:18:12.982Z,97834.47
2023-07-03T19:20:41.755Z,97824.78
2023-07-03T19:23:11.619Z,97830.41
2023-07-03T19:25:39.715Z,97833.44
2023-07-03T19:28:07.514Z,97835.63
2023-07-03T19:30:35.308Z,97830.59
2023-07-03T19:33:05.163Z,97839.25
2023-07-03T19:35:32.939Z,97841.06
2023-07-03T19:38:00.912Z,97829.75
2023-07-03T19:40:29.909Z,97831.38
2023-07-03T19:42:58.040Z,97838.13
2023-07-03T19:45:27.965Z,97845.50
2023-07-03T19:48:00.256Z,97840.63
2023-07-03T19:50:34.040Z,97843.69
2023-07-03T19:53:03.757Z,97845.63
2023-07-03T19:55:34.567Z,97852.19
2023-07-03T19:58:04.018Z,97854.69
2023-07-03T20:00:35.441Z,97857.84
2023-07-03T20:03:06.739Z,97857.47
2023-07-03T20:05:37.464Z,97857.94
2023-07-03T20:08:06.964Z,97858.94
2023-07-03T20:10:36.909Z,97861.34
2023-07-03T20:13:06.741Z,97859.31
2023-07-03T20:15:36.197Z,97859.00
2023-07-03T20:18:04.489Z,97864.13
2023-07-03T20:20:32.900Z,97868.94
2023-07-03T20:23:05.049Z,97870.94
2023-07-03T20:25:35.492Z,97863.16
2023-07-03T20:28:06.753Z,97866.41
2023-07-03T20:30:35.900Z,97866.53
2023-07-03T20:33:03.778Z,97857.59
2023-07-03T20:35:33.323Z,97861.59
2023-07-03T20:38:02.761Z,97868.44
2023-07-03T20:40:31.500Z,97869.44
2023-07-03T20:43:00.985Z,97870.28
2023-07-03T20:45:29.946Z,97860.13
2023-07-03T20:48:01.067Z,97870.38
2023-07-03T20:50:30.246Z,97867.88
2023-07-03T20:53:11.028Z,97865.50
2023-07-03T20:55:45.138Z,97870.88
2023-07-03T20:58:14.471Z,97875.59
2023-07-03T21:00:42.515Z,97874.78
2023-07-03T21:03:10.966Z,97878.09
2023-07-03T21:05:41.641Z,97890.75
2023-07-03T21:08:11.786Z,97882.09
2023-07-03T21:10:41.400Z,97877.03
2023-07-03T21:13:09.584Z,97881.38
2023-07-03T21:15:40.809Z,97887.69
2023-07-03T21:18:09.042Z,97887.38
2023-07-03T21:20:36.848Z,97894.50
2023-07-03T21:23:04.673Z,97887.66
2023-07-03T21:25:35.025Z,97894.88
2023-07-03T21:28:04.534Z,97888.22
2023-07-03T21:30:32.513Z,97888.78
2023-07-03T21:33:00.494Z,97890.94
2023-07-03T21:35:28.390Z,97905.97
2023-07-03T21:37:58.015Z,97908.28
2023-07-03T21:40:26.274Z,97902.78
2023-07-03T21:42:54.302Z,97909.22
2023-07-03T21:45:23.580Z,97908.59
2023-07-03T21:47:52.230Z,97916.56
2023-07-03T21:50:20.336Z,97926.13
2023-07-03T21:52:48.734Z,97925.59
2023-07-03T21:55:17.945Z,97921.13
2023-07-03T21:57:46.978Z,97913.56
2023-07-03T22:00:18.601Z,97915.03
2023-07-03T22:02:52.390Z,97912.84
2023-07-03T22:05:22.745Z,97914.63
2023-07-03T22:07:51.955Z,97907.31
2023-07-03T22:10:20.756Z,97910.84
2023-07-03T22:12:51.453Z,97898.91
2023-07-03T22:15:19.687Z,97901.13
2023-07-03T22:17:48.879Z,97900.84
2023-07-03T22:20:20.541Z,97907.78
2023-07-03T22:22:49.104Z,97897.50
2023-07-03T22:25:17.347Z,97899.72
2023-07-03T22:27:47.338Z,97905.59
2023-07-03T22:30:16.457Z,97898.44
2023-07-03T22:32:44.491Z,97893.72
2023-07-03T22:35:13.882Z,97895.34
2023-07-03T22:37:42.139Z,97895.34
2023-07-03T22:40:12.183Z,97892.91
2023-07-03T22:42:40.037Z,97899.28
2023-07-03T22:45:10.538Z,97898.94
2023-07-03T22:47:38.622Z,97898.28
2023-07-03T22:50:07.627Z,97887.69
2023-07-03T22:52:37.129Z,97882.63
2023-07-03T22:55:07.451Z,97874.28
2023-07-03T22:57:36.581Z,97880.88
2023-07-03T23:00:06.357Z,97887.16
2023-07-03T23:02:34.261Z,97887.09
2023-07-03T23:05:02.025Z,97895.03
2023-07-03T23:07:29.797Z,97891.78
2023-07-03T23:09:59.983Z,97908.09
2023-07-03T23:12:28.137Z,97903.69
2023-07-03T23:14:56.032Z,97902.19
2023-07-03T23:17:27.295Z,97910.19
2023-07-03T23:19:55.658Z,97905.47
2023-07-03T23:22:24.231Z,97898.50
2023-07-03T23:24:54.935Z,97899.78
2023-07-03T23:27:25.090Z,97900.81
2023-07-03T23:29:53.604Z,97901.59
2023-07-03T23:32:21.708Z,97904.03
2023-07-03T23:34:51.300Z,97904.94
2023-07-03T23:37:21.589Z,97902.75
2023-07-03T23:39:49.562Z,97904.72
2023-07-03T23:42:17.329Z,97904.84
2023-07-03T23:44:46.516Z,97908.13
2023-07-03T23:47:14.522Z,97893.34
2023-07-03T23:49:42.484Z,97904.84
2023-07-03T23:52:10.200Z,97897.81
2023-07-03T23:54:37.954Z,97903.41
2023-07-03T23:57:06.109Z,97912.09
2023-07-03T23:59:33.847Z,97914.50
